Time;durP1;ratioP1;P1;durP2;ratioP2;P2;SDS_P1;SDS_P2;PMS_P1;PMS_P2;Temp;Humidity;BMP_temperature;BMP_pressure;BME280_temperature;BME280_humidity;BME280_pressure;Samples;Min_cycle;Max_cycle;Signal;HPM_P1;HPM_P2
2023/03/01 00:03:20;;;;;;;22.25;12.52;;;;;;;;;;10278485;28;20453;-82
2023/03/01 00:08:21;;;;;;;23.45;12.80;;;;;;;;;;10281892;28;20265;-82
2023/03/01 00:13:21;;;;;;;24.52;12.95;;;;;;;;;;10277560;28;20055;-80
2023/03/01 00:18:23;;;;;;;24.23;12.63;;;;;;;;;;10252967;28;20051;-79
2023/03/01 00:23:24;;;;;;;21.80;11.77;;;;;;;;;;10253785;28;20050;-80
2023/03/01 00:28:26;;;;;;;22.67;11.85;;;;;;;;;;10299720;28;20096;-80
2023/03/01 00:33:28;;;;;;;23.20;12.90;;;;;;;;;;10276115;28;20110;-79
2023/03/01 00:38:29;;;;;;;21.02;12.50;;;;;;;;;;10287075;28;20026;-81
2023/03/01 00:43:34;;;;;;;22.40;11.63;;;;;;;;;;10260718;28;20023;-81
2023/03/01 00:48:37;;;;;;;20.77;12.38;;;;;;;;;;10236904;28;20056;-80
2023/03/01 00:53:39;;;;;;;21.95;12.35;;;;;;;;;;10246677;28;20074;-81
2023/03/01 00:58:40;;;;;;;23.55;13.18;;;;;;;;;;10272215;28;20101;-82
2023/03/01 01:03:41;;;;;;;23.52;12.98;;;;;;;;;;10264824;28;20047;-81
2023/03/01 01:08:41;;;;;;;23.80;12.65;;;;;;;;;;10267820;28;20047;-81
2023/03/01 01:13:52;;;;;;;22.40;11.90;;;;;;;;;;10259244;28;20051;-81
2023/03/01 01:18:52;;;;;;;22.90;13.35;;;;;;;;;;10284778;28;20078;-81
2023/03/01 01:23:55;;;;;;;21.13;11.88;;;;;;;;;;10328495;28;20051;-80
2023/03/01 01:28:56;;;;;;;24.77;12.45;;;;;;;;;;10329815;28;20057;-80
2023/03/01 01:34:03;;;;;;;20.88;11.73;;;;;;;;;;10288425;28;20059;-80
2023/03/01 01:39:04;;;;;;;25.27;12.90;;;;;;;;;;10249658;28;20058;-81
2023/03/01 01:44:12;;;;;;;26.55;12.73;;;;;;;;;;10243733;28;20602;-82
2023/03/01 01:49:16;;;;;;;24.60;12.95;;;;;;;;;;10262766;28;20423;-81
2023/03/01 01:54:24;;;;;;;24.15;12.20;;;;;;;;;;10236696;28;20412;-80
2023/03/01 01:59:27;;;;;;;24.15;12.50;;;;;;;;;;10248633;28;20161;-80
2023/03/01 02:04:28;;;;;;;21.33;12.07;;;;;;;;;;10269994;28;20045;-80
2023/03/01 02:09:30;;;;;;;22.40;11.88;;;;;;;;;;10268431;28;20085;-81
2023/03/01 02:14:30;;;;;;;22.67;12.18;;;;;;;;;;10254289;28;20051;-80
2023/03/01 02:19:32;;;;;;;21.50;12.32;;;;;;;;;;10273643;28;20050;-79
2023/03/01 02:24:47;;;;;;;23.77;12.68;;;;;;;;;;10272674;28;20050;-79
2023/03/01 02:29:50;;;;;;;21.52;12.88;;;;;;;;;;10268655;28;20113;-81
2023/03/01 02:34:57;;;;;;;24.70;12.70;;;;;;;;;;10259165;28;20081;-81
2023/03/01 02:40:02;;;;;;;22.08;12.27;;;;;;;;;;10294496;28;21145;-81
2023/03/01 02:45:06;;;;;;;24.98;12.35;;;;;;;;;;10313231;28;20065;-80
2023/03/01 02:50:33;;;;;;;23.38;12.48;;;;;;;;;;10314719;28;20641;-81
2023/03/01 02:55:35;;;;;;;23.33;13.68;;;;;;;;;;10281435;28;20031;-83
2023/03/01 03:00:39;;;;;;;23.35;13.23;;;;;;;;;;10270507;28;20083;-80
2023/03/01 03:05:41;;;;;;;23.85;12.20;;;;;;;;;;10267733;28;20055;-80
2023/03/01 03:10:42;;;;;;;28.75;12.95;;;;;;;;;;10295123;28;20031;-81
2023/03/01 03:15:50;;;;;;;23.50;12.40;;;;;;;;;;10305314;28;20081;-80
2023/03/01 03:20:52;;;;;;;21.63;12.23;;;;;;;;;;10317221;28;20117;-82
2023/03/01 03:25:56;;;;;;;24.70;13.05;;;;;;;;;;10307389;28;20043;-81
2023/03/01 03:31:05;;;;;;;25.20;12.82;;;;;;;;;;10318964;28;20077;-82
2023/03/01 03:36:12;;;;;;;25.08;12.35;;;;;;;;;;10317797;28;20043;-81
2023/03/01 03:41:14;;;;;;;24.05;12.65;;;;;;;;;;10311445;28;20483;-81
2023/03/01 03:46:14;;;;;;;26.02;12.95;;;;;;;;;;10311665;28;20055;-81
2023/03/01 03:51:17;;;;;;;26.13;12.63;;;;;;;;;;10322276;28;20055;-82
2023/03/01 03:56:17;;;;;;;24.23;13.07;;;;;;;;;;10324123;28;20479;-80
2023/03/01 04:01:20;;;;;;;24.55;12.75;;;;;;;;;;10324127;28;20046;-80
2023/03/01 04:06:20;;;;;;;22.70;11.93;;;;;;;;;;10293538;28;20047;-81
2023/03/01 04:11:28;;;;;;;23.90;11.80;;;;;;;;;;10271433;28;20823;-80
2023/03/01 04:16:30;;;;;;;26.50;12.38;;;;;;;;;;10272384;28;20093;-79
2023/03/01 04:21:33;;;;;;;25.95;12.35;;;;;;;;;;10273712;28;20042;-81
2023/03/01 04:26:38;;;;;;;24.80;12.43;;;;;;;;;;10293056;28;20054;-80
2023/03/01 04:31:39;;;;;;;23.80;12.10;;;;;;;;;;10286644;28;20106;-81
2023/03/01 04:36:39;;;;;;;23.38;11.85;;;;;;;;;;10283857;28;20052;-81
2023/03/01 04:41:40;;;;;;;22.05;12.27;;;;;;;;;;10250044;28;20043;-79
2023/03/01 04:46:41;;;;;;;23.23;12.45;;;;;;;;;;10266125;28;20779;-79
2023/03/01 04:51:43;;;;;;;23.35;12.60;;;;;;;;;;10264940;28;20126;-79
2023/03/01 04:56:43;;;;;;;24.02;12.35;;;;;;;;;;10298843;28;20042;-81
2023/03/01 05:01:43;;;;;;;23.27;12.40;;;;;;;;;;10316512;28;20590;-80
2023/03/01 05:06:44;;;;;;;23.23;12.35;;;;;;;;;;10322849;28;20039;-80
2023/03/01 05:11:51;;;;;;;24.75;12.13;;;;;;;;;;10291086;28;20118;-82
2023/03/01 05:16:51;;;;;;;24.38;13.40;;;;;;;;;;10314498;28;20102;-81
2023/03/01 05:27:40;;;;;;;26.88;13.98;;;;;;;;;;10332662;28;20054;-79
2023/03/01 05:32:45;;;;;;;24.33;13.52;;;;;;;;;;10321173;28;20051;-80
2023/03/01 05:37:47;;;;;;;25.33;13.63;;;;;;;;;;10229128;28;20114;-81
2023/03/01 05:42:56;;;;;;;25.35;13.23;;;;;;;;;;10227165;28;20047;-80
2023/03/01 05:47:59;;;;;;;26.77;13.43;;;;;;;;;;10229384;28;20051;-79
2023/03/01 05:53:07;;;;;;;30.30;13.57;;;;;;;;;;10259541;28;20059;-80
2023/03/01 05:58:17;;;;;;;25.33;13.60;;;;;;;;;;10260049;28;20070;-80
2023/03/01 06:03:18;;;;;;;26.08;13.70;;;;;;;;;;10250258;28;20058;-81
2023/03/01 06:08:24;;;;;;;26.85;14.10;;;;;;;;;;10244070;28;20055;-80
2023/03/01 06:13:29;;;;;;;26.52;13.43;;;;;;;;;;10261609;28;20054;-79
2023/03/01 06:18:31;;;;;;;27.40;13.27;;;;;;;;;;10254689;28;20047;-81
2023/03/01 06:23:32;;;;;;;25.45;13.77;;;;;;;;;;10251431;28;20055;-80
2023/03/01 06:28:33;;;;;;;26.58;13.52;;;;;;;;;;10217762;28;20495;-81
2023/03/01 06:33:34;;;;;;;24.90;12.68;;;;;;;;;;10253125;28;20058;-80
2023/03/01 06:38:34;;;;;;;28.20;14.02;;;;;;;;;;10237243;28;20047;-79
2023/03/01 06:43:39;;;;;;;25.70;13.88;;;;;;;;;;10263641;28;20050;-81
2023/03/01 06:48:40;;;;;;;27.00;13.35;;;;;;;;;;10260336;28;20047;-80
2023/03/01 06:53:42;;;;;;;28.70;13.65;;;;;;;;;;10269533;28;20055;-80
2023/03/01 06:58:45;;;;;;;24.77;12.95;;;;;;;;;;10326277;23;20130;-81
2023/03/01 07:03:46;;;;;;;27.65;14.32;;;;;;;;;;10249450;28;20015;-83
2023/03/01 07:08:46;;;;;;;26.63;13.55;;;;;;;;;;10574209;23;20065;-84
2023/03/01 07:13:49;;;;;;;32.33;15.50;;;;;;;;;;10242133;28;20047;-85
2023/03/01 07:18:49;;;;;;;22.63;13.65;;;;;;;;;;10231468;29;20122;-83
2023/03/01 07:23:53;;;;;;;29.33;14.48;;;;;;;;;;10234195;29;20122;-84
2023/03/01 07:28:53;;;;;;;26.83;14.48;;;;;;;;;;10228481;29;20073;-84
2023/03/01 07:33:58;;;;;;;26.75;14.18;;;;;;;;;;10233558;28;20075;-85
2023/03/01 07:39:02;;;;;;;24.75;13.82;;;;;;;;;;10247276;28;20485;-84
2023/03/01 07:44:06;;;;;;;21.42;12.35;;;;;;;;;;10245100;29;20075;-83
2023/03/01 07:49:08;;;;;;;24.00;13.80;;;;;;;;;;10228479;29;20078;-84
2023/03/01 07:54:08;;;;;;;29.52;14.60;;;;;;;;;;10209296;29;20646;-84
2023/03/01 07:59:09;;;;;;;24.27;12.88;;;;;;;;;;10269817;28;20028;-85
2023/03/01 08:04:11;;;;;;;23.52;13.85;;;;;;;;;;10250760;28;20043;-84
2023/03/01 08:09:20;;;;;;;22.38;13.57;;;;;;;;;;10258910;28;20032;-86
2023/03/01 08:14:24;;;;;;;24.00;13.40;;;;;;;;;;10252099;28;20071;-86
2023/03/01 08:19:25;;;;;;;25.17;13.48;;;;;;;;;;10265370;28;20066;-82
2023/03/01 08:24:25;;;;;;;23.90;13.05;;;;;;;;;;10254891;29;20032;-84
2023/03/01 08:29:27;;;;;;;25.30;13.20;;;;;;;;;;10253851;29;20241;-85
2023/03/01 08:34:28;;;;;;;25.60;13.50;;;;;;;;;;10251732;28;20058;-84
2023/03/01 08:39:30;;;;;;;22.75;12.35;;;;;;;;;;10255810;29;20503;-86
2023/03/01 08:44:32;;;;;;;24.90;13.40;;;;;;;;;;10266721;28;20031;-85
2023/03/01 08:49:35;;;;;;;22.83;13.10;;;;;;;;;;10267144;28;20044;-86
2023/03/01 08:54:37;;;;;;;21.90;12.55;;;;;;;;;;10276487;28;20087;-85
2023/03/01 08:59:38;;;;;;;23.83;13.52;;;;;;;;;;10272725;28;20048;-84
2023/03/01 09:04:39;;;;;;;21.70;12.10;;;;;;;;;;10233890;28;20091;-86
2023/03/01 09:09:40;;;;;;;22.98;13.30;;;;;;;;;;10584265;23;20039;-88
2023/03/01 09:14:41;;;;;;;19.77;12.52;;;;;;;;;;10312704;28;20604;-86
2023/03/01 09:19:44;;;;;;;;;;;;;;;;;;10640308;23;20094;-86
2023/03/01 09:24:45;;;;;;;21.30;12.40;;;;;;;;;;10329043;28;19921;-86
2023/03/01 09:29:48;;;;;;;20.30;11.48;;;;;;;;;;10322975;28;20043;-87
2023/03/01 09:35:06;;;;;;;22.58;12.82;;;;;;;;;;10496647;23;20149;-88
2023/03/01 09:40:10;;;;;;;20.83;12.00;;;;;;;;;;10709518;23;20144;-87
2023/03/01 09:45:20;;;;;;;19.40;11.15;;;;;;;;;;10289727;28;20164;-88
2023/03/01 09:50:21;;;;;;;23.63;14.15;;;;;;;;;;10268669;28;20201;-79
2023/03/01 09:55:31;;;;;;;21.42;12.73;;;;;;;;;;10268076;28;20062;-87
2023/03/01 10:00:50;;;;;;;21.80;12.15;;;;;;;;;;10279622;28;20040;-85
2023/03/01 10:06:02;;;;;;;18.38;11.52;;;;;;;;;;10274327;28;20107;-86
2023/03/01 10:11:06;;;;;;;19.93;12.07;;;;;;;;;;10286868;28;20043;-88
2023/03/01 10:16:07;;;;;;;;;;;;;;;;;;10302550;28;20057;-84
2023/03/01 10:21:13;;;;;;;20.30;11.93;;;;;;;;;;10281505;28;19906;-82
2023/03/01 10:26:14;;;;;;;17.77;11.23;;;;;;;;;;10317793;28;20061;-85
2023/03/01 10:31:18;;;;;;;18.92;11.73;;;;;;;;;;10303801;28;20088;-84
2023/03/01 10:36:18;;;;;;;17.77;11.50;;;;;;;;;;10251053;28;20039;-83
2023/03/01 10:41:19;;;;;;;19.98;10.85;;;;;;;;;;10230165;28;20055;-83
2023/03/01 10:46:36;;;;;;;18.80;10.70;;;;;;;;;;10246073;28;20034;-82
2023/03/01 10:51:38;;;;;;;18.10;11.45;;;;;;;;;;10239025;28;20106;-82
2023/03/01 10:56:48;;;;;;;17.33;11.57;;;;;;;;;;10250363;28;20043;-81
2023/03/01 11:02:00;;;;;;;18.70;11.40;;;;;;;;;;10232528;28;20879;-81
2023/03/01 11:07:02;;;;;;;20.53;11.50;;;;;;;;;;10228278;28;20055;-82
2023/03/01 11:12:03;;;;;;;19.48;11.27;;;;;;;;;;10269397;28;20799;-83
2023/03/01 11:17:05;;;;;;;20.33;11.02;;;;;;;;;;10266558;28;20106;-81
2023/03/01 11:22:15;;;;;;;21.77;12.07;;;;;;;;;;10258263;28;20071;-83
2023/03/01 11:27:27;;;;;;;17.25;10.98;;;;;;;;;;10230450;28;20537;-84
2023/03/01 11:32:31;;;;;;;22.05;12.23;;;;;;;;;;10406698;23;20050;-83
2023/03/01 11:37:51;;;;;;;18.70;11.00;;;;;;;;;;10308284;28;20106;-84
2023/03/01 11:43:02;;;;;;;17.23;11.57;;;;;;;;;;10318940;28;20087;-84
2023/03/01 11:48:17;;;;;;;20.40;12.02;;;;;;;;;;10323950;28;20046;-83
2023/03/01 11:53:36;;;;;;;20.05;12.95;;;;;;;;;;10328125;28;20053;-86
2023/03/01 11:58:39;;;;;;;16.70;11.27;;;;;;;;;;10329850;28;20042;-83
2023/03/01 12:03:50;;;;;;;17.45;11.60;;;;;;;;;;10347008;28;20049;-86
2023/03/01 12:09:11;;;;;;;15.77;11.07;;;;;;;;;;10346198;28;20067;-86
2023/03/01 12:14:24;;;;;;;16.90;11.40;;;;;;;;;;10292659;28;20050;-84
2023/03/01 12:19:51;;;;;;;15.25;10.57;;;;;;;;;;10339590;28;20106;-86
2023/03/01 12:30:33;;;;;;;17.88;11.65;;;;;;;;;;10313333;28;20051;-85
2023/03/01 12:35:54;;;;;;;17.55;11.85;;;;;;;;;;10302207;28;20051;-85
2023/03/01 12:40:56;;;;;;;16.65;11.18;;;;;;;;;;10274456;28;20058;-83
2023/03/01 12:46:09;;;;;;;16.90;11.27;;;;;;;;;;10308097;28;20042;-82
2023/03/01 12:51:17;;;;;;;16.57;11.23;;;;;;;;;;10301094;28;20051;-82
2023/03/01 12:56:23;;;;;;;16.10;12.13;;;;;;;;;;10308903;28;20046;-83
2023/03/01 13:01:45;;;;;;;14.60;11.55;;;;;;;;;;10311220;28;20030;-85
2023/03/01 13:07:07;;;;;;;14.23;11.32;;;;;;;;;;10333583;28;20091;-83
2023/03/01 13:12:34;;;;;;;16.23;11.63;;;;;;;;;;10330541;28;20065;-82
2023/03/01 13:17:55;;;;;;;16.10;11.65;;;;;;;;;;10316885;28;20103;-85
2023/03/01 13:23:14;;;;;;;18.23;12.00;;;;;;;;;;10308666;28;20134;-84
2023/03/01 13:28:35;;;;;;;17.50;11.75;;;;;;;;;;10332591;28;20090;-83
2023/03/01 13:33:43;;;;;;;16.98;11.23;;;;;;;;;;10306854;28;20050;-84
2023/03/01 13:43:47;;;;;;;16.63;12.20;;;;;;;;;;10594802;23;20070;-85
2023/03/01 13:48:50;;;;;;;;;;;;;;;;;;10420763;23;20119;-84
2023/03/01 13:53:52;;;;;;;15.65;12.13;;;;;;;;;;10268581;28;19935;-84
2023/03/01 13:59:01;;;;;;;15.82;12.05;;;;;;;;;;10270663;28;20074;-83
2023/03/01 14:04:03;;;;;;;15.52;11.65;;;;;;;;;;10328393;23;20048;-84
2023/03/01 14:15:17;;;;;;;18.08;12.20;;;;;;;;;;10239993;28;20115;-81
2023/03/01 14:20:20;;;;;;;16.95;13.05;;;;;;;;;;10244214;28;20059;-82
2023/03/01 14:25:29;;;;;;;16.85;11.70;;;;;;;;;;10223955;28;20118;-82
2023/03/01 14:30:32;;;;;;;18.00;12.63;;;;;;;;;;10240453;28;20113;-84
2023/03/01 14:35:34;;;;;;;14.57;10.77;;;;;;;;;;10279104;28;20023;-81
2023/03/01 14:40:36;;;;;;;17.80;11.15;;;;;;;;;;10287618;28;20023;-83
2023/03/01 14:45:37;;;;;;;17.97;10.97;;;;;;;;;;10251193;28;20051;-84
2023/03/01 14:50:41;;;;;;;17.02;11.38;;;;;;;;;;10250612;28;20055;-81
2023/03/01 14:55:44;;;;;;;14.57;9.55;;;;;;;;;;10228572;28;20134;-82
2023/03/01 15:00:55;;;;;;;16.23;9.63;;;;;;;;;;10241055;28;20114;-82
2023/03/01 15:05:56;;;;;;;14.70;9.50;;;;;;;;;;10236175;28;20047;-83
2023/03/01 15:11:04;;;;;;;13.60;9.15;;;;;;;;;;10224697;28;20500;-83
2023/03/01 15:16:12;;;;;;;18.33;11.93;;;;;;;;;;10226670;28;20046;-82
2023/03/01 15:21:19;;;;;;;14.75;10.52;;;;;;;;;;10234574;28;20134;-81
2023/03/01 15:26:29;;;;;;;13.73;8.65;;;;;;;;;;10240841;28;20177;-82
2023/03/01 15:31:38;;;;;;;17.60;10.85;;;;;;;;;;10249068;28;20051;-80
2023/03/01 15:36:42;;;;;;;13.85;8.75;;;;;;;;;;10257518;28;20047;-80
2023/03/01 15:41:47;;;;;;;15.85;8.85;;;;;;;;;;10234113;28;20062;-79
2023/03/01 15:46:49;;;;;;;12.68;8.90;;;;;;;;;;10242502;28;20128;-81
2023/03/01 15:51:53;;;;;;;14.52;8.25;;;;;;;;;;10226601;28;20235;-81
2023/03/01 15:56:55;;;;;;;15.02;9.35;;;;;;;;;;10231983;28;20428;-80
2023/03/01 16:01:56;;;;;;;12.50;8.68;;;;;;;;;;10217267;28;20047;-81
2023/03/01 16:06:56;;;;;;;12.45;8.65;;;;;;;;;;10244361;28;20055;-79
2023/03/01 16:11:58;;;;;;;13.98;9.50;;;;;;;;;;10244260;28;20059;-80
2023/03/01 16:16:59;;;;;;;15.20;10.00;;;;;;;;;;10236743;28;20957;-78
2023/03/01 16:22:01;;;;;;;18.65;11.63;;;;;;;;;;10239147;28;20567;-80
2023/03/01 16:27:03;;;;;;;17.45;11.75;;;;;;;;;;10222782;28;20464;-81
2023/03/01 16:32:05;;;;;;;16.33;10.95;;;;;;;;;;10263625;23;20058;-80
2023/03/01 16:37:06;;;;;;;15.98;10.90;;;;;;;;;;10268849;28;20035;-81
2023/03/01 16:42:07;;;;;;;18.17;11.27;;;;;;;;;;10266396;28;20063;-81
2023/03/01 16:47:10;;;;;;;18.95;10.90;;;;;;;;;;10272079;28;20039;-82
2023/03/01 16:52:12;;;;;;;21.52;13.50;;;;;;;;;;10263640;28;20047;-79
2023/03/01 16:57:16;;;;;;;16.90;11.05;;;;;;;;;;10258525;28;20077;-80
2023/03/01 17:02:19;;;;;;;16.02;11.77;;;;;;;;;;10260637;28;20051;-81
2023/03/01 17:07:20;;;;;;;19.77;12.10;;;;;;;;;;10250459;28;20075;-82
2023/03/01 17:12:20;;;;;;;20.67;12.30;;;;;;;;;;10246918;28;20074;-83
2023/03/01 17:17:22;;;;;;;19.27;11.38;;;;;;;;;;10236552;28;20039;-78
2023/03/01 17:22:27;;;;;;;18.70;11.45;;;;;;;;;;10239552;28;20040;-79
2023/03/01 17:27:27;;;;;;;18.60;11.20;;;;;;;;;;10213225;29;20488;-78
2023/03/01 17:32:28;;;;;;;19.63;11.93;;;;;;;;;;10227608;28;20423;-79
2023/03/01 17:37:30;;;;;;;19.42;11.77;;;;;;;;;;10189786;28;20554;-80
2023/03/01 17:42:31;;;;;;;20.50;11.82;;;;;;;;;;10227701;29;20071;-81
2023/03/01 17:47:31;;;;;;;19.58;12.07;;;;;;;;;;10223507;29;20099;-83
2023/03/01 17:52:33;;;;;;;21.38;12.65;;;;;;;;;;10212165;28;20059;-80
2023/03/01 17:57:34;;;;;;;18.45;11.43;;;;;;;;;;10213271;29;20476;-82
2023/03/01 18:02:34;;;;;;;19.88;12.05;;;;;;;;;;10211485;29;20051;-79
2023/03/01 18:07:35;;;;;;;21.70;13.57;;;;;;;;;;10205234;28;20040;-79
2023/03/01 18:12:35;;;;;;;20.40;11.95;;;;;;;;;;10204474;29;20079;-78
2023/03/01 18:17:36;;;;;;;22.40;13.30;;;;;;;;;;10203171;29;20039;-79
2023/03/01 18:22:38;;;;;;;19.77;12.38;;;;;;;;;;10202977;28;20047;-79
2023/03/01 18:27:39;;;;;;;23.17;14.02;;;;;;;;;;10203849;29;20039;-80
2023/03/01 18:32:40;;;;;;;26.77;14.52;;;;;;;;;;10210759;28;20056;-79
2023/03/01 18:37:40;;;;;;;24.05;13.75;;;;;;;;;;10201711;29;20043;-79
2023/03/01 18:42:45;;;;;;;23.52;14.30;;;;;;;;;;10198554;29;20114;-79
2023/03/01 18:47:48;;;;;;;24.83;14.43;;;;;;;;;;10198561;29;20114;-77
2023/03/01 18:52:50;;;;;;;;;;;;;;;;;;10187351;28;20126;-78
2023/03/01 18:57:50;;;;;;;26.98;16.15;;;;;;;;;;10206385;28;19998;-78
2023/03/01 19:02:51;;;;;;;28.17;15.63;;;;;;;;;;10208579;29;20043;-80
2023/03/01 19:07:51;;;;;;;28.00;15.98;;;;;;;;;;10199075;29;20051;-79
2023/03/01 19:12:51;;;;;;;28.23;16.45;;;;;;;;;;10166085;29;20690;-81
2023/03/01 19:17:53;;;;;;;25.47;15.23;;;;;;;;;;10205318;29;20047;-81
2023/03/01 19:22:53;;;;;;;27.30;15.82;;;;;;;;;;10212079;29;20949;-81
2023/03/01 19:27:55;;;;;;;28.45;15.60;;;;;;;;;;10204922;29;20054;-79
2023/03/01 19:32:56;;;;;;;26.15;15.50;;;;;;;;;;10185426;29;20505;-80
2023/03/01 19:37:58;;;;;;;27.85;16.10;;;;;;;;;;10185534;29;20083;-81
2023/03/01 19:42:58;;;;;;;24.08;15.13;;;;;;;;;;10214269;29;20059;-80
2023/03/01 19:47:59;;;;;;;27.52;15.05;;;;;;;;;;10245626;29;20044;-81
2023/03/01 19:52:59;;;;;;;24.45;14.23;;;;;;;;;;10249240;29;20146;-83
2023/03/01 19:58:05;;;;;;;27.95;15.77;;;;;;;;;;10223388;29;20540;-81
2023/03/01 20:03:05;;;;;;;28.02;15.82;;;;;;;;;;10207480;29;20055;-83
2023/03/01 20:08:08;;;;;;;26.45;16.60;;;;;;;;;;10239091;28;20082;-81
2023/03/01 20:13:09;;;;;;;28.85;16.77;;;;;;;;;;10221754;29;20047;-80
2023/03/01 20:18:10;;;;;;;31.35;17.10;;;;;;;;;;10252783;28;20546;-81
2023/03/01 20:23:11;;;;;;;29.48;15.70;;;;;;;;;;10240831;28;20083;-83
2023/03/01 20:28:11;;;;;;;31.25;17.98;;;;;;;;;;10225206;28;20055;-82
2023/03/01 20:33:13;;;;;;;28.30;15.27;;;;;;;;;;10246583;28;20063;-80
2023/03/01 20:38:13;;;;;;;29.10;16.55;;;;;;;;;;10245696;29;20736;-80
2023/03/01 20:43:15;;;;;;;32.30;16.95;;;;;;;;;;10230713;28;20047;-79
2023/03/01 20:48:15;;;;;;;31.33;17.92;;;;;;;;;;10233825;29;20362;-80
2023/03/01 20:53:17;;;;;;;30.48;16.42;;;;;;;;;;10226497;29;20133;-83
2023/03/01 20:58:17;;;;;;;34.15;17.55;;;;;;;;;;10234884;29;20541;-80
2023/03/01 21:03:18;;;;;;;37.85;17.40;;;;;;;;;;10212074;29;20050;-81
2023/03/01 21:08:18;;;;;;;32.03;16.23;;;;;;;;;;10209865;29;20144;-80
2023/03/01 21:13:19;;;;;;;31.83;16.50;;;;;;;;;;10212454;29;20316;-79
2023/03/01 21:18:20;;;;;;;29.48;16.65;;;;;;;;;;10215275;29;20073;-81
2023/03/01 21:23:22;;;;;;;29.35;16.27;;;;;;;;;;10208561;29;20048;-80
2023/03/01 21:28:26;;;;;;;32.15;18.23;;;;;;;;;;10192609;29;20100;-81
2023/03/01 21:33:26;;;;;;;30.10;16.55;;;;;;;;;;10209045;29;20134;-80
2023/03/01 21:38:31;;;;;;;32.28;16.25;;;;;;;;;;10212326;29;20139;-80
2023/03/01 21:43:35;;;;;;;29.23;16.20;;;;;;;;;;10213152;29;20078;-81
2023/03/01 21:48:37;;;;;;;31.17;16.30;;;;;;;;;;10192431;29;20047;-80
2023/03/01 21:53:38;;;;;;;31.02;16.42;;;;;;;;;;10183708;29;20059;-80
2023/03/01 21:58:40;;;;;;;34.10;17.00;;;;;;;;;;10196223;29;20081;-81
2023/03/01 22:03:46;;;;;;;32.47;17.80;;;;;;;;;;10210986;29;20739;-80
2023/03/01 22:08:48;;;;;;;31.15;16.45;;;;;;;;;;10241159;29;20047;-80
2023/03/01 22:13:51;;;;;;;31.33;16.90;;;;;;;;;;10238248;28;20056;-81
2023/03/01 22:18:52;;;;;;;32.07;16.90;;;;;;;;;;10243423;28;20044;-79
2023/03/01 22:23:53;;;;;;;29.55;16.02;;;;;;;;;;10220697;29;20078;-79
2023/03/01 22:28:54;;;;;;;28.80;16.27;;;;;;;;;;10193141;29;20051;-79
2023/03/01 22:34:00;;;;;;;29.95;16.02;;;;;;;;;;10220786;29;20074;-79
2023/03/01 22:39:02;;;;;;;28.80;16.48;;;;;;;;;;10234147;29;20115;-79
2023/03/01 22:44:03;;;;;;;33.65;17.45;;;;;;;;;;10233581;29;20039;-82
2023/03/01 22:49:04;;;;;;;30.50;17.58;;;;;;;;;;10257703;28;20055;-78
2023/03/01 22:54:05;;;;;;;29.38;16.52;;;;;;;;;;10260802;29;20135;-79
2023/03/01 22:59:08;;;;;;;33.25;16.92;;;;;;;;;;10259526;29;20060;-80
2023/03/01 23:04:08;;;;;;;32.22;16.55;;;;;;;;;;10248659;29;20050;-80
2023/03/01 23:09:12;;;;;;;33.03;17.20;;;;;;;;;;10222785;29;20054;-80
2023/03/01 23:14:13;;;;;;;29.10;16.55;;;;;;;;;;10218770;29;20932;-81
2023/03/01 23:19:18;;;;;;;31.88;16.17;;;;;;;;;;10199826;29;20265;-80
2023/03/01 23:24:18;;;;;;;;;;;;;;;;;;10226165;29;20083;-80
2023/03/01 23:29:18;;;;;;;31.43;16.53;;;;;;;;;;10204063;29;20070;-80
2023/03/01 23:34:19;;;;;;;31.83;17.02;;;;;;;;;;10237630;29;20330;-81
2023/03/01 23:39:20;;;;;;;31.88;16.38;;;;;;;;;;10224437;29;20051;-81
2023/03/01 23:44:21;;;;;;;31.48;16.38;;;;;;;;;;10217395;29;20103;-80
2023/03/01 23:49:23;;;;;;;29.55;16.02;;;;;;;;;;10210408;28;20051;-80
2023/03/01 23:54:24;;;;;;;29.40;17.23;;;;;;;;;;10210799;28;20059;-81
2023/03/01 23:59:24;;;;;;;30.80;16.60;;;;;;;;;;10197986;29;20051;-80
